createdAt,value
2023-03-06T00:00:54.700Z,68.08
2023-03-06T00:05:59.387Z,68.01
2023-03-06T00:11:02.244Z,67.67
2023-03-06T00:16:07.015Z,67.97
2023-03-06T00:21:11.419Z,67.97
2023-03-06T00:26:14.235Z,66.96
2023-03-06T00:31:18.368Z,67.11
2023-03-06T00:36:22.564Z,67.54
2023-03-06T00:41:25.356Z,68.45
2023-03-06T00:46:28.160Z,67.47
2023-03-06T00:51:33.305Z,68.02
2023-03-06T00:56:36.498Z,67.95
2023-03-06T01:01:39.624Z,67.69
2023-03-06T01:06:43.947Z,67.17
2023-03-06T01:11:46.891Z,66.98
2023-03-06T01:16:49.899Z,67.51
2023-03-06T01:21:54.615Z,68.49
2023-03-06T01:26:57.471Z,68.98
2023-03-06T01:32:00.340Z,68.30
2023-03-06T01:37:04.573Z,68.14
2023-03-06T01:42:07.859Z,68.55
2023-03-06T01:47:10.661Z,68.65
2023-03-06T01:52:19.905Z,69.94
2023-03-06T01:57:25.099Z,69.52
2023-03-06T02:02:28.241Z,69.49
2023-03-06T02:07:33.238Z,70.68
2023-03-06T02:12:37.522Z,70.82
2023-03-06T02:17:41.092Z,70.14
2023-03-06T02:22:53.327Z,71.49
2023-03-06T02:27:57.478Z,71.56
2023-03-06T02:33:00.490Z,71.47
2023-03-06T02:38:07.920Z,72.50
2023-03-06T02:43:13.452Z,72.54
2023-03-06T02:48:17.694Z,72.28
2023-03-06T02:53:22.685Z,72.06
2023-03-06T02:58:26.890Z,72.34
2023-03-06T03:03:29.882Z,72.41
2023-03-06T03:08:34.501Z,72.55
2023-03-06T03:13:40.664Z,73.15
2023-03-06T03:18:48.186Z,72.60
2023-03-06T03:23:53.174Z,73.31
2023-03-06T03:28:57.378Z,73.09
2023-03-06T03:34:00.946Z,72.61
2023-03-06T03:39:05.935Z,72.10
2023-03-06T03:44:10.313Z,72.00
2023-03-06T03:49:13.193Z,72.41
2023-03-06T03:54:16.118Z,72.58
2023-03-06T03:59:24.093Z,72.78
2023-03-06T04:05:02.191Z,73.20
2023-03-06T04:10:05.879Z,73.22
2023-03-06T04:15:11.093Z,72.87
2023-03-06T04:20:15.487Z,72.67
2023-03-06T04:25:19.317Z,72.57
2023-03-06T04:30:24.674Z,72.27
2023-03-06T04:35:28.195Z,72.45
2023-03-06T04:40:37.334Z,73.54
2023-03-06T04:45:42.187Z,74.32
2023-03-06T04:50:45.804Z,74.86
2023-03-06T04:55:48.685Z,75.75
2023-03-06T05:00:53.117Z,76.29
2023-03-06T05:05:55.920Z,77.09
2023-03-06T05:11:01.612Z,76.23
2023-03-06T05:16:07.671Z,75.89
2023-03-06T05:21:10.507Z,75.90
2023-03-06T05:26:15.128Z,75.54
2023-03-06T05:31:19.369Z,75.91
2023-03-06T05:36:22.416Z,77.42
2023-03-06T05:41:25.163Z,76.26
2023-03-06T05:46:29.369Z,76.26
2023-03-06T05:51:32.189Z,78.84
2023-03-06T05:56:34.987Z,77.15
2023-03-06T06:01:39.075Z,77.21
2023-03-06T06:06:41.862Z,76.62
2023-03-06T06:11:44.669Z,77.83
2023-03-06T06:16:49.119Z,76.68
2023-03-06T06:21:54.325Z,75.79
2023-03-06T06:26:58.625Z,76.18
2023-03-06T06:32:02.883Z,75.71
2023-03-06T06:37:05.747Z,76.81
2023-03-06T06:42:29.322Z,76.35
2023-03-06T06:47:34.347Z,76.05
2023-03-06T06:52:37.266Z,75.18
2023-03-06T06:57:41.236Z,74.96
2023-03-06T07:02:49.064Z,75.73
2023-03-06T07:07:51.968Z,76.32
2023-03-06T07:12:56.504Z,74.97
2023-03-06T07:18:01.325Z,74.82
2023-03-06T07:23:04.268Z,73.18
2023-03-06T07:28:07.613Z,73.67
2023-03-06T07:33:11.866Z,75.27
2023-03-06T07:38:14.638Z,75.13
2023-03-06T07:43:19.626Z,75.43
2023-03-06T07:48:31.647Z,75.53
2023-03-06T07:53:35.173Z,76.14
2023-03-06T07:58:38.718Z,75.56
2023-03-06T08:03:43.319Z,76.67
2023-03-06T08:08:47.732Z,77.00
2023-03-06T08:13:52.575Z,79.31
2023-03-06T08:18:57.653Z,78.69
2023-03-06T08:24:00.444Z,79.84
2023-03-06T08:29:03.657Z,79.08
2023-03-06T08:34:09.379Z,79.33
2023-03-06T08:39:13.061Z,80.22
2023-03-06T08:44:15.914Z,80.32
2023-03-06T08:49:20.038Z,80.40
2023-03-06T08:54:22.754Z,81.35
2023-03-06T08:59:25.714Z,80.66
2023-03-06T09:04:32.007Z,80.24
2023-03-06T09:09:34.778Z,81.15
2023-03-06T09:14:37.491Z,80.46
2023-03-06T09:19:41.597Z,78.89
2023-03-06T09:24:44.298Z,79.92
2023-03-06T09:29:47.048Z,82.17
2023-03-06T09:34:51.536Z,81.98
2023-03-06T09:39:54.328Z,81.65
2023-03-06T09:45:00.050Z,81.34
2023-03-06T09:50:24.990Z,81.89
2023-03-06T09:55:31.844Z,83.27
2023-03-06T10:00:39.455Z,84.46
2023-03-06T10:05:48.276Z,83.99
2023-03-06T10:10:59.468Z,83.89
2023-03-06T10:16:12.291Z,82.64
2023-03-06T10:21:31.230Z,81.58
2023-03-06T10:26:40.974Z,82.42
2023-03-06T10:31:49.277Z,80.53
2023-03-06T10:36:53.727Z,80.60
2023-03-06T10:41:56.672Z,79.66
2023-03-06T10:46:59.479Z,79.39
2023-03-06T10:52:07.740Z,79.11
2023-03-06T10:57:25.685Z,79.30
2023-03-06T11:02:31.490Z,78.76
2023-03-06T11:07:36.856Z,76.94
2023-03-06T11:12:41.778Z,75.65
2023-03-06T11:17:52.033Z,76.80
2023-03-06T11:23:03.918Z,77.87
2023-03-06T11:28:13.836Z,74.33
2023-03-06T11:33:23.432Z,72.55
2023-03-06T11:38:37.162Z,73.41
2023-03-06T11:43:50.763Z,74.37
2023-03-06T11:49:01.987Z,73.01
2023-03-06T11:54:06.361Z,75.12
2023-03-06T11:59:25.127Z,73.42
2023-03-06T12:04:47.055Z,70.75
2023-03-06T12:09:56.812Z,69.15
2023-03-06T12:15:16.078Z,69.16
2023-03-06T12:20:33.277Z,70.25
2023-03-06T12:25:38.625Z,69.40
2023-03-06T12:30:58.722Z,67.94
2023-03-06T12:36:17.271Z,64.21
2023-03-06T12:41:31.659Z,67.74
2023-03-06T12:46:38.403Z,66.37
2023-03-06T12:51:44.144Z,65.79
2023-03-06T12:56:49.702Z,68.23
2023-03-06T13:02:08.434Z,70.02
2023-03-06T13:07:26.232Z,68.30
2023-03-06T13:12:43.335Z,59.15
2023-03-06T13:17:46.212Z,60.67
2023-03-06T13:22:49.073Z,52.24
2023-03-06T13:28:04.254Z,55.82
2023-03-06T13:33:45.725Z,53.27
2023-03-06T13:38:59.958Z,41.35
2023-03-06T13:44:30.668Z,42.72
2023-03-06T13:49:34.923Z,43.42
2023-03-06T13:54:49.812Z,42.15
2023-03-06T14:00:32.323Z,42.36
2023-03-06T14:05:43.237Z,49.30
2023-03-06T14:10:48.123Z,45.81
2023-03-06T14:15:53.098Z,45.77
2023-03-06T14:21:00.356Z,53.01
2023-03-06T14:26:15.031Z,44.85
2023-03-06T14:31:20.230Z,39.69
2023-03-06T14:36:29.618Z,41.12
2023-03-06T14:41:34.746Z,42.26
2023-03-06T14:46:37.558Z,44.56
2023-03-06T14:51:44.805Z,48.16
2023-03-06T14:56:49.857Z,46.47
2023-03-06T15:01:57.990Z,47.02
2023-03-06T15:07:02.379Z,47.00
2023-03-06T15:12:07.973Z,44.92
2023-03-06T15:17:33.210Z,45.46
2023-03-06T15:22:38.873Z,46.11
2023-03-06T15:27:41.779Z,46.99
2023-03-06T15:32:44.568Z,45.58
2023-03-06T15:37:48.679Z,45.48
2023-03-06T15:42:51.987Z,45.89
2023-03-06T15:47:56.256Z,47.41
2023-03-06T15:53:00.379Z,47.15
2023-03-06T15:58:04.651Z,47.24
2023-03-06T16:03:07.439Z,47.75
2023-03-06T16:08:14.724Z,49.74
2023-03-06T16:13:21.900Z,49.85
2023-03-06T16:18:24.975Z,50.04
2023-03-06T16:23:29.095Z,50.83
2023-03-06T16:28:33.668Z,50.95
2023-03-06T16:33:36.589Z,51.60
2023-03-06T16:38:40.961Z,53.11
2023-03-06T16:43:43.834Z,53.63
2023-03-06T16:48:47.078Z,54.44
2023-03-06T16:53:51.866Z,55.28
2023-03-06T16:58:54.616Z,56.06
2023-03-06T17:03:57.442Z,56.35
2023-03-06T17:09:01.723Z,55.98
2023-03-06T17:14:04.460Z,55.89
2023-03-06T17:19:07.400Z,55.62
2023-03-06T17:24:11.521Z,56.04
2023-03-06T17:29:14.279Z,56.09
2023-03-06T17:34:17.644Z,56.02
2023-03-06T17:39:21.898Z,56.23
2023-03-06T17:44:24.860Z,56.80
2023-03-06T17:49:27.941Z,57.34
2023-03-06T17:54:33.192Z,57.53
2023-03-06T17:59:36.024Z,58.38
2023-03-06T18:04:38.923Z,58.89
2023-03-06T18:09:44.029Z,59.27
2023-03-06T18:14:48.612Z,59.73
2023-03-06T18:19:52.300Z,60.42
2023-03-06T18:24:56.587Z,61.59
2023-03-06T18:29:59.518Z,62.34
2023-03-06T18:35:02.361Z,62.86
2023-03-06T18:40:07.894Z,63.16
2023-03-06T18:45:12.753Z,63.62
2023-03-06T18:50:17.478Z,63.69
2023-03-06T18:55:21.813Z,64.16
2023-03-06T19:00:25.457Z,64.82
2023-03-06T19:05:28.338Z,64.96
2023-03-06T19:10:35.187Z,65.63
2023-03-06T19:15:44.041Z,66.47
2023-03-06T19:20:46.917Z,67.01
2023-03-06T19:26:09.526Z,66.91
2023-03-06T19:31:13.983Z,67.02
2023-03-06T19:36:23.063Z,67.36
2023-03-06T19:41:28.402Z,68.18
2023-03-06T19:46:31.924Z,69.26
2023-03-06T19:51:34.719Z,71.04
2023-03-06T19:56:39.282Z,72.11
2023-03-06T20:01:42.247Z,73.84
2023-03-06T20:06:50.235Z,74.34
2023-03-06T20:11:54.540Z,74.75
2023-03-06T20:16:57.501Z,74.62
2023-03-06T20:22:00.354Z,74.09
2023-03-06T20:27:04.758Z,74.30
2023-03-06T20:32:07.559Z,74.29
2023-03-06T20:37:11.162Z,74.29
2023-03-06T20:42:15.332Z,75.66
2023-03-06T20:47:18.214Z,76.08
2023-03-06T20:52:20.955Z,76.90
2023-03-06T20:57:25.084Z,77.32
2023-03-06T21:02:27.811Z,77.25
2023-03-06T21:07:30.568Z,79.25
2023-03-06T21:12:34.662Z,78.38
2023-03-06T21:17:37.462Z,78.97
2023-03-06T21:22:40.506Z,80.30
2023-03-06T21:27:44.550Z,80.79
2023-03-06T21:32:47.575Z,80.09
2023-03-06T21:37:50.297Z,79.63
2023-03-06T21:42:54.381Z,79.19
2023-03-06T21:47:57.164Z,79.61
2023-03-06T21:52:59.835Z,79.40
2023-03-06T21:58:03.929Z,80.50
2023-03-06T22:03:06.694Z,79.17
2023-03-06T22:08:09.582Z,80.00
2023-03-06T22:13:13.835Z,79.38
2023-03-06T22:18:16.701Z,78.83
2023-03-06T22:23:19.483Z,78.12
2023-03-06T22:28:23.616Z,77.66
2023-03-06T22:33:26.424Z,76.79
2023-03-06T22:38:29.463Z,76.78
2023-03-06T22:43:33.987Z,76.49
2023-03-06T22:48:37.055Z,76.16
2023-03-06T22:53:40.629Z,75.37
2023-03-06T22:58:45.091Z,75.88
2023-03-06T23:03:49.910Z,76.41
2023-03-06T23:08:55.164Z,76.42
2023-03-06T23:13:59.788Z,75.00
2023-03-06T23:19:21.397Z,74.59
2023-03-06T23:24:42.564Z,74.38
2023-03-06T23:29:50.333Z,74.65
2023-03-06T23:34:53.134Z,73.41
2023-03-06T23:39:56.023Z,75.78
2023-03-06T23:45:00.416Z,77.24
2023-03-06T23:50:03.175Z,77.83
2023-03-06T23:55:06.796Z,79.10
